Latest Weather Observations for Mount Moornapa

IDV60801

Issued at 7:05 am EDT Friday 28 November 2014 (issued every 30 minutes, with the page automatically refreshed every 10 minutes)

About weather observations | Map of weather stations | Latest weather observations for VIC | Other Formats
Station Details ID: 085296 Name: MOUNT MOORNAPA Lat: -37.75 Lon: 147.14 Height: 480.0 m
Data from the previous 72 hours. | See also: Recent months at Mount Moornapa
Date/Time
EDT
Temp
°C
App
Temp
°C
Dew
Point
Rel
Hum
%
Delta-T
°C
Wind Press
QNH
hPa
Press
MSL
hPa
Rain
since 9 am
mm
Dir
 
Spd
km/h
Gust
km/h
Spd
kts
Gust
kts
28/07:00am 8.6 8.0 7.4 92 0.6 CALM 0 0 0 0 - - 0.0
28/06:30am 8.0 7.3 7.1 94 0.4 CALM 0 0 0 0 - - 0.0
28/06:00am 7.6 6.8 6.4 92 0.6 CALM 0 0 0 0 - - 0.0
28/05:30am 8.1 7.1 5.4 83 1.2 CALM 0 2 0 1 - - 0.0
28/05:00am 8.5 7.3 4.7 77 1.7 CALM 0 0 0 0 - - 0.0
28/04:30am 8.7 7.3 5.4 80 1.5 ESE 2 4 1 2 - - 0.0
28/04:00am 9.1 7.8 4.1 71 2.3 CALM 0 2 0 1 - - 0.0
28/03:30am 8.8 6.3 4.0 72 2.2 NE 6 9 3 5 - - 0.0
28/03:00am 9.3 6.2 3.7 68 2.5 NE 9 11 5 6 - - 0.0
28/02:30am 9.0 6.8 3.4 68 2.5 ENE 4 7 2 4 - - 0.0
28/02:00am 9.1 6.9 5.3 77 1.8 ENE 6 11 3 6 - - 0.0
28/01:30am 8.3 6.3 6.1 86 1.0 E 6 9 3 5 - - 0.0
28/01:00am 8.9 7.3 6.5 85 1.1 ENE 4 9 2 5 - - 0.0
28/12:30am 8.8 6.8 6.1 83 1.3 ENE 6 9 3 5 - - 0.0
28/12:00am 9.7 7.6 5.7 76 1.9 NE 6 9 3 5 - - 0.0
 
Date/Time
EDT
Temp
°C
App
Temp
°C
Dew
Point
Rel
Hum
%
Delta-T
°C
Wind Press
QNH
hPa
Press
MSL
hPa
Rain
since 9 am
mm
Dir
 
Spd
km/h
Gust
km/h
Spd
kts
Gust
kts
27/11:30pm 9.3 7.4 6.9 85 1.2 E 6 11 3 6 - - 0.0
27/11:00pm 9.3 7.4 7.7 90 0.8 E 7 11 4 6 - - 0.0
27/10:30pm 9.6 8.1 8.4 92 0.6 E 6 9 3 5 - - 0.0
27/10:00pm 9.8 8.2 8.6 92 0.6 E 7 13 4 7 - - 0.0
27/09:30pm 10.2 8.2 8.5 89 0.9 E 9 15 5 8 - - 0.0
27/09:00pm 10.7 8.7 8.6 87 1.1 ESE 9 20 5 11 - - 0.0
27/08:30pm 11.4 9.8 8.6 83 1.4 E 7 15 4 8 - - 0.0
27/08:00pm 12.8 11.8 8.7 76 2.1 ESE 4 9 2 5 - - 0.0
27/07:30pm 14.1 12.7 8.7 70 2.8 ESE 6 9 3 5 - - 0.0
27/07:00pm 15.7 14.3 9.4 66 3.3 SE 7 17 4 9 - - 0.0
27/06:30pm 16.3 14.8 9.3 63 3.7 SE 7 13 4 7 - - 0.0
27/06:00pm 16.8 15.0 9.5 62 3.9 SE 9 17 5 9 - - 0.0
27/05:30pm 17.7 15.9 9.6 59 4.4 SE 9 19 5 10 - - 0.0
27/05:00pm 17.9 16.2 8.5 54 5.0 SE 7 11 4 6 - - 0.0
27/04:30pm 19.3 17.4 6.8 44 6.4 SSE 6 15 3 8 - - 0.0
27/04:00pm 19.7 18.3 7.1 44 6.5 S 4 9 2 5 - - 0.0
27/03:30pm 19.1 17.0 5.9 42 6.7 S 6 11 3 6 - - 0.0
27/03:00pm 19.3 17.3 6.4 43 6.6 SSE 6 13 3 7 - - 0.0
27/02:30pm 18.8 16.8 6.3 44 6.4 SSE 6 19 3 10 - - 0.0
27/02:00pm 18.1 16.0 6.0 45 6.1 SSW 6 13 3 7 - - 0.0
27/01:30pm 17.1 14.9 5.4 46 5.8 S 6 11 3 6 - - 0.0
27/01:00pm 17.3 15.5 7.1 51 5.2 SSW 6 11 3 6 - - 0.0
27/12:30pm 15.4 13.3 5.9 53 4.7 SSW 6 13 3 7 - - 0.0
27/12:00pm 15.7 14.0 7.5 58 4.2 S 6 15 3 8 - - 0.0
27/11:30am 15.4 13.5 6.9 57 4.3 SSW 6 9 3 5 - - 0.0
27/11:00am 13.2 11.0 5.4 59 3.7 S 6 11 3 6 - - 0.0
27/10:30am 13.8 12.3 6.7 62 3.5 S 4 9 2 5 - - 0.0
27/10:00am 13.3 11.4 6.6 64 3.3 S 6 9 3 5 - - 0.0
27/09:30am 12.4 10.7 5.8 64 3.2 SSW 4 9 2 5 - - 0.0
27/09:00am 11.0 8.7 4.9 66 2.8 WSW 6 7 3 4 - - 0.0
27/08:30am 10.7 8.4 5.7 71 2.4 WSW 7 15 4 8 - - 0.0
27/08:00am 9.5 7.1 5.1 74 2.0 WSW 7 13 4 7 - - 0.0
27/07:30am 8.9 6.5 5.1 77 1.8 W 7 17 4 9 - - 0.0
27/07:00am 8.4 6.2 5.2 80 1.5 W 6 11 3 6 - - 0.0
27/06:30am 8.1 5.8 5.0 81 1.4 WNW 6 11 3 6 - - 0.0
27/06:00am 8.1 5.6 4.9 80 1.5 W 7 11 4 6 - - 0.0
27/05:30am 8.1 5.6 4.9 80 1.5 WSW 7 13 4 7 - - 0.0
27/05:00am 8.2 5.7 4.8 79 1.5 SW 7 15 4 8 - - 0.0
27/04:30am 8.2 5.9 5.0 80 1.5 SW 6 11 3 6 - - 0.0
27/04:00am 8.3 6.1 5.2 81 1.4 SW 6 13 3 7 - - 0.0
27/03:30am 8.3 5.9 5.2 81 1.4 SW 7 19 4 10 - - 0.0
27/03:00am 8.3 6.1 5.4 82 1.3 WSW 6 11 3 6 - - 0.0
27/02:30am 8.4 6.2 5.5 82 1.3 SW 6 15 3 8 - - 0.0
27/02:00am 8.6 7.0 6.2 85 1.1 SSW 4 11 2 6 - - 0.0
27/01:30am 8.7 6.7 6.3 85 1.1 S 6 9 3 5 - - 0.0
27/01:00am 8.8 6.8 6.4 85 1.1 S 6 13 3 7 - - 0.0
27/12:30am 8.9 6.9 6.3 84 1.2 SSW 6 17 3 9 - - 0.0
27/12:00am 9.0 7.2 7.0 87 1.0 S 6 13 3 7 - - 0.0
 
Date/Time
EDT
Temp
°C
App
Temp
°C
Dew
Point
Rel
Hum
%
Delta-T
°C
Wind Press
QNH
hPa
Press
MSL
hPa
Rain
since 9 am
mm
Dir
 
Spd
km/h
Gust
km/h
Spd
kts
Gust
kts
26/11:30pm 9.0 7.2 7.0 87 1.0 SSW 6 17 3 9 - - 0.0
26/11:00pm 10.1 8.5 8.0 87 1.0 S 6 11 3 6 - - 0.0
26/10:30pm 10.7 9.2 8.5 86 1.1 S 6 9 3 5 - - 0.0
26/10:00pm 11.3 10.4 9.2 87 1.1 WSW 4 11 2 6 - - 0.0
26/09:30pm 11.5 10.3 9.4 87 1.1 SSW 6 11 3 6 - - 0.0
26/09:00pm 11.5 10.4 9.8 89 0.9 SW 6 15 3 8 - - 0.0
26/08:30pm 12.0 11.0 10.2 89 0.9 SW 6 13 3 7 - - 0.0
26/08:00pm 12.2 10.9 10.1 87 1.1 SSW 7 17 4 9 - - 0.0
26/07:30pm 12.6 11.3 10.0 84 1.4 SSW 7 19 4 10 - - 0.0
26/07:00pm 13.4 12.2 10.4 82 1.6 SSW 7 24 4 13 - - 0.0
26/06:30pm 14.3 13.1 10.3 77 2.1 S 7 22 4 12 - - 0.0
26/06:00pm 16.2 14.9 10.1 67 3.3 S 7 15 4 8 - - 0.0
26/05:30pm 16.6 15.4 10.2 66 3.5 SSW 7 17 4 9 - - 0.0
26/05:00pm 18.9 17.8 10.5 58 4.6 S 7 26 4 14 - - 0.0
26/04:30pm 17.6 16.4 9.5 59 4.3 S 6 13 3 7 - - 0.0
26/04:00pm 17.8 16.3 9.2 57 4.6 S 7 15 4 8 - - 0.0
26/03:30pm 16.8 14.8 8.8 59 4.2 SSW 9 22 5 12 - - 0.0
26/03:00pm 17.9 16.8 10.0 60 4.3 SSW 6 15 3 8 - - 0.0
26/02:30pm 16.7 14.8 9.1 61 4.0 S 9 20 5 11 - - 0.0
26/02:00pm 15.7 14.3 8.9 64 3.6 S 6 15 3 8 - - 0.0
26/01:30pm 17.8 16.5 9.9 60 4.3 S 7 17 4 9 - - 0.0
26/01:00pm 17.2 15.7 9.1 59 4.3 S 7 11 4 6 - - 0.0
26/12:30pm 17.1 16.0 9.8 62 3.9 S 6 13 3 7 - - 0.0
26/12:00pm 15.9 14.3 7.9 59 4.1 SSW 6 11 3 6 - - 0.0
26/11:30am 15.7 14.3 8.9 64 3.6 SW 6 9 3 5 - - 0.0
26/11:00am 15.4 14.5 9.1 66 3.3 SSW 4 9 2 5 - - 0.0
26/10:30am 13.7 12.7 9.0 73 2.4 SW 4 7 2 4 - - 0.0
26/10:00am 13.0 12.4 8.9 76 2.1 SSW 2 6 1 3 - - 0.0
26/09:30am 13.1 12.2 9.2 77 2.0 S 4 9 2 5 - - 0.0
26/09:00am 11.5 10.5 8.7 83 1.4 S 4 6 2 3 - - 0.2
26/08:30am 10.7 9.9 8.3 85 1.2 SSW 2 4 1 2 - - 0.2
26/08:00am 10.6 10.3 8.7 88 1.0 CALM 0 2 0 1 - - 0.2
26/07:30am 10.1 9.1 8.7 91 0.7 N 4 7 2 4 - - 0.2
26/07:00am 9.4 7.8 8.2 92 0.6 N 6 9 3 5 - - 0.2
26/06:30am 8.9 7.3 8.1 95 0.4 NNE 6 9 3 5 - - 0.2
26/06:00am 8.5 7.5 7.4 93 0.5 ESE 2 6 1 3 - - 0.2
26/05:30am 8.8 8.3 7.7 93 0.5 CALM 0 4 0 2 - - 0.2
26/05:00am 8.8 7.5 7.7 93 0.5 NE 4 7 2 4 - - 0.2
26/04:30am 8.8 7.1 7.6 92 0.6 NNE 6 9 3 5 - - 0.2
26/04:00am 8.7 6.8 7.5 92 0.6 N 7 9 4 5 - - 0.2
26/03:30am 9.1 8.4 7.1 87 1.0 CALM 0 0 0 0 - - 0.2
26/03:00am 8.8 7.3 6.9 88 0.9 SW 4 6 2 3 - - 0.2
26/02:30am 9.3 7.6 7.4 88 0.9 WSW 6 7 3 4 - - 0.2
26/02:00am 8.9 7.5 7.4 90 0.7 WNW 4 6 2 3 - - 0.2
26/01:30am 9.3 7.4 7.6 89 0.8 W 7 11 4 6 - - 0.2
26/01:00am 9.2 7.3 7.6 90 0.8 W 7 15 4 8 - - 0.2
26/12:30am 9.2 7.3 7.6 90 0.8 WSW 7 13 4 7 - - 0.2
26/12:00am 9.1 7.2 7.7 91 0.7 SW 7 15 4 8 - - 0.2
 
Date/Time
EDT
Temp
°C
App
Temp
°C
Dew
Point
Rel
Hum
%
Delta-T
°C
Wind Press
QNH
hPa
Press
MSL
hPa
Rain
since 9 am
mm
Dir
 
Spd
km/h
Gust
km/h
Spd
kts
Gust
kts
25/11:30pm 9.2 7.4 7.8 91 0.7 SW 7 20 4 11 - - 0.2
25/11:00pm 9.4 7.3 8.2 92 0.6 SW 9 22 5 12 - - 0.2
25/10:30pm 9.3 8.1 8.1 92 0.6 SSW 4 11 2 6 - - 0.2
25/10:00pm 9.9 7.8 8.2 89 0.8 SSW 9 24 5 13 - - 0.2
25/09:30pm 10.4 8.3 8.3 87 1.1 SSW 9 20 5 11 - - 0.2
25/09:00pm 10.9 8.9 8.5 85 1.2 S 9 20 5 11 - - 0.2
25/08:30pm 11.8 9.8 8.5 80 1.7 S 9 17 5 9 - - 0.2
25/08:00pm 13.0 10.6 8.5 74 2.3 S 11 22 6 12 - - 0.2
25/07:30pm 14.0 12.0 8.6 70 2.8 S 9 17 5 9 - - 0.2
25/07:00pm 14.4 12.3 8.1 66 3.2 S 9 15 5 8 - - 0.2
25/06:30pm 15.6 14.0 8.6 63 3.6 S 7 19 4 10 - - 0.2
25/06:00pm 16.9 15.2 7.5 54 4.8 S 6 15 3 8 - - 0.2
25/05:30pm 17.9 16.3 7.9 52 5.2 SSW 6 13 3 7 - - 0.2
25/05:00pm 17.1 15.2 6.6 50 5.3 WSW 6 17 3 9 - - 0.2
25/04:30pm 19.0 17.7 9.2 53 5.3 SSW 6 15 3 8 - - 0.2
25/04:00pm 17.7 15.5 7.7 52 5.2 SW 9 22 5 12 - - 0.2
25/03:30pm 18.3 15.5 5.2 42 6.5 WSW 9 20 5 11 - - 0.2
25/03:00pm 17.5 15.0 6.7 49 5.5 SW 9 24 5 13 - - 0.2
25/02:30pm 17.6 13.7 5.2 44 6.1 WSW 15 24 8 13 - - 0.2
25/02:00pm 17.6 14.7 6.5 48 5.6 W 11 24 6 13 - - 0.2
25/01:30pm 17.1 15.0 6.6 50 5.3 W 7 20 4 11 - - 0.2
25/01:00pm 18.3 16.4 7.7 50 5.5 W 7 19 4 10 - - 0.2
25/12:30pm 16.7 13.9 6.8 52 5.0 W 11 26 6 14 - - 0.2
25/12:00pm 17.2 14.2 7.5 53 5.0 W 13 20 7 11 - - 0.0
25/11:30am 16.6 13.9 7.5 55 4.7 W 11 24 6 13 - - 0.0
25/11:00am 14.0 11.3 5.4 56 4.2 WNW 9 24 5 13 - - 0.0
25/10:30am 14.4 11.6 5.0 53 4.5 W 9 22 5 12 - - 0.0
25/10:00am 14.7 11.4 6.5 58 4.1 W 13 26 7 14 - - 0.0
25/09:30am 13.2 9.6 4.9 57 3.9 W 13 30 7 16 - - 0.0
25/09:00am 13.1 9.9 5.0 58 3.9 W 11 22 6 12 - - 15.2
25/08:30am 11.9 9.4 4.6 61 3.4 W 7 22 4 12 - - 15.2
25/08:00am 10.9 8.2 3.9 62 3.2 WNW 7 19 4 10 - - 15.2
25/07:30am 9.9 6.8 3.6 65 2.8 WNW 9 22 5 12 - - 15.2

Other Formats:

Comma delimited format used in spreadsheet applications
http://www.bom.gov.au/fwo/IDV60801/IDV60801.95913.axf

JavaScript Object Notation format (JSON) in row-major order
http://www.bom.gov.au/fwo/IDV60801/IDV60801.95913.json